ADDS METAR Data INFO
IDs: Format: Raw Decoded Include TAF

Data at: 0840 UTC 21 Oct 2017

K7L2 210835Z AUTO 28010KT 10SM CLR 13/03 A2938 RMK AO2
K7L2 210815Z AUTO 24007KT 10SM CLR 12/05 A2938 RMK AO2
K7L2 210755Z AUTO 25008KT 10SM CLR 14/06 A2937 RMK AO2
K7L2 210735Z AUTO 26009KT 10SM CLR 15/07 A2935 RMK AO2
K7L2 210715Z AUTO 24009G15KT 10SM CLR 15/09 A2934 RMK AO2
K7L2 210655Z AUTO 21011G17KT 10SM CLR 16/10 A2936 RMK AO2
K7L2 210635Z AUTO 20013G26KT 10SM CLR 16/10 A2935 RMK AO2
K7L2 210615Z AUTO 17015KT 10SM CLR 16/10 A2930 RMK AO2
K7L2 210555Z AUTO 16016G22KT 10SM CLR 16/10 A2930 RMK AO2
K7L2 210535Z AUTO 16016KT 10SM CLR 16/10 A2930 RMK AO2
K7L2 210515Z AUTO 16016G21KT 10SM CLR 17/10 A2930 RMK AO2
K7L2 210455Z AUTO 16018G24KT 10SM CLR 17/10 A2930 RMK AO2
K7L2 210435Z AUTO 16019KT 10SM CLR 17/10 A2930 RMK AO2
K7L2 210415Z AUTO 16020KT 10SM CLR 18/10 A2930 RMK AO2
K7L2 210355Z AUTO 16017G23KT 10SM CLR 18/10 A2930 RMK AO2
K7L2 210335Z AUTO 16019KT 10SM CLR 18/10 A2931 RMK AO2
K7L2 210315Z AUTO 16018KT 10SM CLR 18/10 A2931 RMK AO2
K7L2 210255Z AUTO 16018KT 10SM CLR 18/10 A2931 RMK AO2
K7L2 210235Z AUTO 15016G22KT 10SM CLR 18/10 A2931 RMK AO2
K7L2 210215Z AUTO 16016G23KT 10SM CLR 19/10 A2932 RMK AO2
K7L2 210155Z AUTO 17018G24KT 10SM CLR 19/11 A2932 RMK AO2
K7L2 210135Z AUTO 15016G22KT 10SM CLR 19/10 A2932 RMK AO2
K7L2 210115Z AUTO 16018G25KT 10SM CLR 20/10 A2933 RMK AO2
K7L2 210055Z AUTO 16018KT 10SM CLR 20/10 A2933 RMK AO2
K7L2 210035Z AUTO 16016G23KT 10SM CLR 21/10 A2933 RMK AO2
K7L2 210015Z AUTO 15016G22KT 10SM CLR 21/10 A2932 RMK AO2
K7L2 202355Z AUTO 15017KT 10SM CLR 21/10 A2931 RMK AO2
K7L2 202335Z AUTO 16019G25KT 10SM CLR 22/10 A2930 RMK AO2
K7L2 202315Z AUTO 16019KT 10SM CLR 23/10 A2930 RMK AO2
K7L2 202255Z AUTO 16018G24KT 10SM CLR 23/10 A2930 RMK AO2
K7L2 202235Z AUTO 16017G27KT 10SM CLR 23/10 A2931 RMK AO2
K7L2 202215Z AUTO 16020G29KT 10SM CLR 24/10 A2932 RMK AO2
K7L2 202155Z AUTO 16017G25KT 10SM CLR 23/09 A2933 RMK AO2
K7L2 202135Z AUTO 16020G27KT 10SM CLR 23/09 A2934 RMK AO2
K7L2 202115Z AUTO 15019G30KT 10SM CLR 25/10 A2934 RMK AO2
K7L2 202055Z AUTO 15015G24KT 10SM CLR 25/09 A2934 RMK AO2
K7L2 202035Z AUTO 16019G25KT 10SM CLR 24/08 A2934 RMK AO2
K7L2 202015Z AUTO 15020G26KT 10SM CLR 24/09 A2935 RMK AO2
K7L2 201955Z AUTO 16020G27KT 10SM CLR 23/08 A2936 RMK AO2
K7L2 201935Z AUTO 17020KT 10SM CLR 23/08 A2937 RMK AO2
K7L2 201915Z AUTO 16015G22KT 10SM CLR 23/08 A2939 RMK AO2
K7L2 201855Z AUTO 17015KT 10SM CLR 23/08 A2941 RMK AO2
K7L2 201835Z AUTO 17017KT 10SM CLR 24/08 A2941 RMK AO2
K7L2 201815Z AUTO 16017KT 10SM CLR 23/08 A2942 RMK AO2
K7L2 201755Z AUTO 18013G19KT 10SM CLR 23/08 A2944 RMK AO2
K7L2 201735Z AUTO 17015KT 10SM CLR 23/08 A2945 RMK AO2
K7L2 201715Z AUTO 18011KT 10SM CLR 21/08 A2946 RMK AO2
K7L2 201655Z AUTO 16011KT 10SM CLR 21/08 A2946 RMK AO2
K7L2 201635Z AUTO 17008G13KT 140V210 10SM CLR 20/08 A2947 RMK AO2
K7L2 201615Z AUTO 17009G16KT 10SM CLR 19/08 A2948 RMK AO2
K7L2 201555Z AUTO 00000KT 10SM 17/07 A2949 RMK AO2
K7L2 201535Z AUTO VRB06G16KT 10SM 16/07 A2949 RMK AO2
K7L2 201515Z AUTO 16015G23KT 10SM 15/07 A2948 RMK AO2
K7L2 201455Z AUTO 15018G25KT 10SM 14/07 A2948 RMK AO2
K7L2 201435Z AUTO 15018G25KT 10SM 13/06 A2949 RMK AO2
K7L2 201415Z AUTO 15018KT 10SM 12/06 A2949 RMK AO2
K7L2 201355Z AUTO 15017G22KT 10SM 11/06 A2949 RMK AO2
K7L2 201335Z AUTO 15015G21KT 10SM 11/06 A2950 RMK AO2
K7L2 201315Z AUTO 14014G22KT 10SM 11/06 A2950 RMK AO2
K7L2 201255Z AUTO 15017G23KT 10SM 12/06 A2950 RMK AO2
K7L2 201235Z AUTO 15015G21KT 10SM 12/07 A2951 RMK AO2
K7L2 201215Z AUTO 10SM 12/06 A2952 RMK AO2
K7L2 201155Z AUTO 15014KT 10SM 12/07 A2953 RMK AO2
K7L2 201135Z AUTO 15016KT 10SM 12/06 A2953 RMK AO2
K7L2 201115Z AUTO 15014G20KT 10SM 12/06 A2954 RMK AO2
K7L2 201055Z AUTO 15014G19KT 10SM 12/06 A2955 RMK AO2
K7L2 201035Z AUTO 14011KT 10SM 12/06 A2955 RMK AO2
K7L2 201015Z AUTO 15010G18KT 10SM 12/06 A2956 RMK AO2
K7L2 200955Z AUTO 14015KT 10SM 12/06 A2956 RMK AO2
K7L2 200935Z AUTO 15015KT 10SM 12/06 A2957 RMK AO2
K7L2 200915Z AUTO 15013G18KT 10SM 12/06 A2958 RMK AO2
K7L2 200855Z AUTO 14011KT 10SM 12/05 A2959 RMK AO2
K7L2 200835Z AUTO 14012KT 10SM 12/05 A2960 RMK AO2
K7L2 200815Z AUTO 14011KT 10SM 12/05 A2961 RMK AO2
K7L2 200755Z AUTO 13006G11KT 10SM 12/05 A2962 RMK AO2
K7L2 200735Z AUTO 14012KT 10SM 11/05 A2962 RMK AO2
K7L2 200715Z AUTO 15013G18KT 10SM 11/05 A2963 RMK AO2
K7L2 200655Z AUTO 15014G19KT 10SM 11/04 A2963 RMK AO2
K7L2 200635Z AUTO 15016KT 10SM 11/04 A2963 RMK AO2
K7L2 200615Z AUTO 14012G18KT 10SM 10/04 A2964 RMK AO2
K7L2 200555Z AUTO 14013KT 10SM 10/04 A2965 RMK AO2
K7L2 200535Z AUTO 09009KT 10SM 07/03 A2966 RMK AO2
K7L2 200515Z AUTO 09009KT 10SM 07/02 A2967 RMK AO2
K7L2 200455Z AUTO 11009KT 10SM 06/01 A2968 RMK AO2
K7L2 200435Z AUTO 10008KT 10SM 06/01 A2969 RMK AO2
K7L2 200415Z AUTO 10008KT 10SM 08/02 A2970 RMK AO2
K7L2 200355Z AUTO 10010KT 10SM 09/02 A2971 RMK AO2
K7L2 200335Z AUTO 11009KT 10SM 08/02 A2971 RMK AO2
K7L2 200315Z AUTO 11009KT 10SM 08/01 A2972 RMK AO2
K7L2 200255Z AUTO 12007KT 10SM 07/01 A2972 RMK AO2
K7L2 200235Z AUTO 11009KT 10SM 09/01 A2973 RMK AO2
K7L2 200215Z AUTO 09011KT 10SM CLR 09/01 A2973 RMK AO2
K7L2 200155Z AUTO 09009KT 10SM CLR 09/01 A2974 RMK AO2
K7L2 200135Z AUTO 10007KT 10SM CLR 10/01 A2974 RMK AO2
K7L2 200115Z AUTO 10005KT 10SM CLR 12/01 A2974 RMK AO2
K7L2 200055Z AUTO 10006KT 10SM CLR 13/02 A2975 RMK AO2
K7L2 200035Z AUTO 13005KT 10SM CLR 14/02 A2975 RMK AO2
K7L2 200015Z AUTO VRB04KT 10SM CLR 15/02 A2975 RMK AO2
K7L2 192355Z AUTO 14005KT 9SM CLR 17/02 A2975 RMK AO2
K7L2 192335Z AUTO 16005KT 10SM CLR 19/03 A2976 RMK AO2
K7L2 192315Z AUTO 15008KT 10SM CLR 20/04 A2976 RMK AO2
K7L2 192255Z AUTO 15004KT 10SM CLR 22/05 A2976 RMK AO2
K7L2 192235Z AUTO 16005KT 10SM CLR 23/05 A2976 RMK AO2
K7L2 192215Z AUTO 18006KT 10SM CLR 23/05 A2976 RMK AO2
K7L2 192155Z AUTO 20007KT 10SM CLR 24/05 A2976 RMK AO2
K7L2 192135Z AUTO 19008G13KT 10SM CLR 24/04 A2976 RMK AO2
K7L2 192115Z AUTO 18008KT 10SM CLR 24/05 A2976 RMK AO2
K7L2 192055Z AUTO 18011KT 10SM CLR 25/04 A2976 RMK AO2